Hartford, South Dakota
Current Conditions -  °F | °C
As of 8:56 PM on Monday 26 Jan 2015 (Local Time) from KFSD Reporting Station
Few Clouds Few Clouds  
Wind Chill: 33°   Ceiling: Unl
Heat Index: 33°   Visibility: 10mi
Dew Point: 30°   Wind: 0mph
Humidity: 89%   Direction: NA
Pressure: 30"   Gusts: NA
Location:  43.62°N, 96.94°W
Report Text: KFSD 270256Z 00000KT 10SM FEW250 01/M01 A3000 RMK AO2 SLP175 T00061011 51017
Loading
Personal Weather Stations






























Interactive Weather Map New forecast layout! Learn more

10-Day Weather Forecast

Advertisements
Track Severe Weather on mobile